createdAt,value
2017-12-12T00:01:58.483Z,97727
2017-12-12T00:04:26.716Z,97713
2017-12-12T00:06:56.311Z,97719
2017-12-12T00:09:26.035Z,97705
2017-12-12T00:11:54.305Z,97718
2017-12-12T00:14:22.779Z,97717
2017-12-12T00:16:51.013Z,97729
2017-12-12T00:19:19.256Z,97725
2017-12-12T00:21:48.460Z,97727
2017-12-12T00:24:17.701Z,97733
2017-12-12T00:26:46.128Z,97734
2017-12-12T00:29:14.379Z,97745
2017-12-12T00:31:42.959Z,97735
2017-12-12T00:34:11.346Z,97752
2017-12-12T00:36:40.004Z,97757
2017-12-12T00:39:08.303Z,97753
2017-12-12T00:41:36.767Z,97757
2017-12-12T00:44:05.180Z,97746
2017-12-12T00:46:34.131Z,97761
2017-12-12T00:49:02.458Z,97751
2017-12-12T00:51:31.723Z,97751
2017-12-12T00:54:00.259Z,97735
2017-12-12T00:56:28.532Z,97748
2017-12-12T00:58:56.763Z,97744
2017-12-12T01:01:25.038Z,97746
2017-12-12T01:03:53.280Z,97721
2017-12-12T01:06:21.546Z,97756
2017-12-12T01:08:49.766Z,97753
2017-12-12T01:11:18.003Z,97757
2017-12-12T01:13:46.660Z,97769
2017-12-12T01:16:14.883Z,97761
2017-12-12T01:18:43.127Z,97775
2017-12-12T01:21:11.567Z,97779
2017-12-12T01:23:39.829Z,97787
2017-12-12T01:26:08.191Z,97790
2017-12-12T01:28:36.434Z,97788
2017-12-12T01:31:04.739Z,97794
2017-12-12T01:33:33.070Z,97790
2017-12-12T01:36:01.292Z,97792
2017-12-12T01:38:29.944Z,97787
2017-12-12T01:40:58.249Z,97791
2017-12-12T01:43:26.578Z,97798
2017-12-12T01:45:54.950Z,97807
2017-12-12T01:48:24.736Z,97807
2017-12-12T01:50:53.582Z,97816
2017-12-12T01:53:21.943Z,97812
2017-12-12T01:55:50.591Z,97803
2017-12-12T01:58:18.926Z,97817
2017-12-12T02:00:47.899Z,97819
2017-12-12T02:03:18.102Z,97834
2017-12-12T02:05:46.407Z,97841
2017-12-12T02:08:15.474Z,97841
2017-12-12T02:10:44.104Z,97844
2017-12-12T02:13:12.352Z,97838
2017-12-12T02:15:41.591Z,97846
2017-12-12T02:18:09.999Z,97847
2017-12-12T02:20:38.410Z,97845
2017-12-12T02:23:07.802Z,97860
2017-12-12T02:25:36.170Z,97862
2017-12-12T02:28:04.506Z,97869
2017-12-12T02:30:32.955Z,97872
2017-12-12T02:33:01.308Z,97872
2017-12-12T02:35:29.621Z,97877
2017-12-12T02:37:58.691Z,97865
2017-12-12T02:40:26.971Z,97876
2017-12-12T02:42:55.325Z,97877
2017-12-12T02:45:27.147Z,97877
2017-12-12T02:47:55.875Z,97883
2017-12-12T02:50:24.281Z,97882
2017-12-12T02:52:52.623Z,97897
2017-12-12T02:55:20.973Z,97899
2017-12-12T02:57:49.351Z,97907
2017-12-12T03:00:17.692Z,97913
2017-12-12T03:02:45.979Z,97926
2017-12-12T03:05:14.383Z,97918
2017-12-12T03:07:42.766Z,97921
2017-12-12T03:10:10.762Z,97930
2017-12-12T03:12:40.051Z,97924
2017-12-12T03:15:08.072Z,97928
2017-12-12T03:17:36.843Z,97925
2017-12-12T03:20:04.873Z,97930
2017-12-12T03:22:33.008Z,97939
2017-12-12T03:25:01.329Z,97937
2017-12-12T03:27:29.256Z,97956
2017-12-12T03:29:57.229Z,97960
2017-12-12T03:32:25.988Z,97973
2017-12-12T03:34:53.964Z,97959
2017-12-12T03:37:21.940Z,97974
2017-12-12T03:39:51.091Z,97983
2017-12-12T03:42:19.084Z,97993
2017-12-12T03:44:47.053Z,98000
2017-12-12T03:47:15.050Z,98010
2017-12-12T03:49:43.126Z,98014
2017-12-12T03:52:11.141Z,98022
2017-12-12T03:54:39.111Z,98021
2017-12-12T03:57:07.505Z,98029
2017-12-12T03:59:35.630Z,98034
2017-12-12T04:02:03.833Z,98049
2017-12-12T04:04:31.935Z,98057
2017-12-12T04:07:00.163Z,98070
2017-12-12T04:09:28.822Z,98076
2017-12-12T04:11:56.867Z,98069
2017-12-12T04:14:24.814Z,98079
2017-12-12T04:16:52.762Z,98074
2017-12-12T04:19:20.671Z,98084
2017-12-12T04:21:48.694Z,98105
2017-12-12T04:24:16.931Z,98107
2017-12-12T04:26:44.906Z,98118
2017-12-12T04:29:12.851Z,98124
2017-12-12T04:31:41.367Z,98119
2017-12-12T04:34:10.803Z,98126
2017-12-12T04:36:39.583Z,98145
2017-12-12T04:39:08.376Z,98154
2017-12-12T04:41:37.068Z,98161
2017-12-12T04:44:05.025Z,98162
2017-12-12T04:46:33.124Z,98179
2017-12-12T04:49:01.512Z,98188
2017-12-12T04:51:29.463Z,98182
2017-12-12T04:53:57.423Z,98190
2017-12-12T04:56:26.167Z,98203
2017-12-12T04:58:54.252Z,98203
2017-12-12T05:01:22.270Z,98210
2017-12-12T05:03:50.275Z,98211
2017-12-12T05:06:18.303Z,98228
2017-12-12T05:08:46.274Z,98232
2017-12-12T05:11:14.247Z,98240
2017-12-12T05:13:42.462Z,98245
2017-12-12T05:16:10.463Z,98255
2017-12-12T05:18:38.689Z,98260
2017-12-12T05:21:06.819Z,98265
2017-12-12T05:23:35.536Z,98270
2017-12-12T05:26:03.740Z,98264
2017-12-12T05:28:31.704Z,98285
2017-12-12T05:30:59.991Z,98300
2017-12-12T05:33:28.007Z,98282
2017-12-12T05:35:55.971Z,98309
2017-12-12T05:38:24.051Z,98305
2017-12-12T05:40:52.763Z,98313
2017-12-12T05:43:20.791Z,98327
2017-12-12T05:45:49.570Z,98329
2017-12-12T05:48:17.597Z,98278
2017-12-12T05:50:45.563Z,98344
2017-12-12T05:53:13.543Z,98349
2017-12-12T05:55:41.919Z,98359
2017-12-12T05:58:10.247Z,98368
2017-12-12T06:00:39.190Z,98379
2017-12-12T06:03:07.220Z,98396
2017-12-12T06:05:35.931Z,98389
2017-12-12T06:08:04.635Z,98405
2017-12-12T06:10:32.678Z,98411
2017-12-12T06:13:00.648Z,98419
2017-12-12T06:15:28.964Z,98427
2017-12-12T06:17:56.932Z,98416
2017-12-12T06:20:24.897Z,98443
2017-12-12T06:22:52.895Z,98450
2017-12-12T06:25:21.960Z,98453
2017-12-12T06:27:49.907Z,98468
2017-12-12T06:30:17.943Z,98477
2017-12-12T06:32:46.619Z,98478
2017-12-12T06:35:14.603Z,98485
2017-12-12T06:37:42.567Z,98498
2017-12-12T06:40:10.805Z,98508
2017-12-12T06:42:38.782Z,98522
2017-12-12T06:45:06.795Z,98529
2017-12-12T06:47:35.507Z,98537
2017-12-12T06:50:03.524Z,98551
2017-12-12T06:52:31.949Z,98561
2017-12-12T06:54:59.887Z,98569
2017-12-12T06:57:27.829Z,98580
2017-12-12T06:59:55.887Z,98594
2017-12-12T07:02:23.844Z,98601
2017-12-12T07:04:51.732Z,98614
2017-12-12T07:07:19.656Z,98615
2017-12-12T07:09:48.363Z,98633
2017-12-12T07:12:16.359Z,98639
2017-12-12T07:14:44.489Z,98647
2017-12-12T07:17:12.475Z,98654
2017-12-12T07:19:41.404Z,98674
2017-12-12T07:22:09.307Z,98670
2017-12-12T07:24:38.015Z,98680
2017-12-12T07:27:05.948Z,98684
2017-12-12T07:29:33.862Z,98689
2017-12-12T07:32:03.115Z,98698
2017-12-12T07:34:31.054Z,98710
2017-12-12T07:36:58.943Z,98706
2017-12-12T07:39:27.163Z,98732
2017-12-12T07:41:55.091Z,98726
2017-12-12T07:44:22.987Z,98729
2017-12-12T07:46:50.919Z,98752
2017-12-12T07:49:20.388Z,98753
2017-12-12T07:51:48.316Z,98739
2017-12-12T07:54:16.975Z,98773
2017-12-12T07:56:44.898Z,98768
2017-12-12T07:59:14.099Z,98784
2017-12-12T08:01:42.030Z,98791
2017-12-12T08:04:09.984Z,98797
2017-12-12T08:06:37.927Z,98801
2017-12-12T08:09:05.870Z,98808
2017-12-12T08:11:33.768Z,98814
2017-12-12T08:14:01.731Z,98812
2017-12-12T08:16:29.923Z,98833
2017-12-12T08:18:58.870Z,98830
2017-12-12T08:21:26.780Z,98842
2017-12-12T08:23:54.695Z,98846
2017-12-12T08:26:22.620Z,98852
2017-12-12T08:28:50.771Z,98858
2017-12-12T08:31:18.659Z,98885
2017-12-12T08:33:46.991Z,98883
2017-12-12T08:36:14.919Z,98896
2017-12-12T08:38:44.333Z,98898
2017-12-12T08:41:12.239Z,98904
2017-12-12T08:43:40.408Z,98911
2017-12-12T08:46:08.372Z,98926
2017-12-12T08:48:36.336Z,98932
2017-12-12T08:51:04.382Z,98932
2017-12-12T08:53:33.043Z,98939
2017-12-12T08:56:02.761Z,98939
2017-12-12T08:58:32.203Z,98951
2017-12-12T09:01:00.906Z,98961
2017-12-12T09:03:29.564Z,98970
2017-12-12T09:05:58.248Z,98972
2017-12-12T09:08:26.951Z,98983
2017-12-12T09:10:55.620Z,98984
2017-12-12T09:13:24.305Z,98997
2017-12-12T09:15:52.960Z,99006
2017-12-12T09:18:20.887Z,99018
2017-12-12T09:20:48.766Z,99025
2017-12-12T09:23:17.021Z,99032
2017-12-12T09:25:44.919Z,99038
2017-12-12T09:28:12.851Z,99042
2017-12-12T09:30:40.751Z,99052
2017-12-12T09:33:08.683Z,99061
2017-12-12T09:35:37.422Z,99058
2017-12-12T09:38:05.318Z,99070
2017-12-12T09:40:33.294Z,99076
2017-12-12T09:43:02.085Z,99082
2017-12-12T09:45:30.019Z,99096
2017-12-12T09:47:57.935Z,99108
2017-12-12T09:50:26.179Z,99113
2017-12-12T09:52:54.147Z,99129
2017-12-12T09:55:23.572Z,99126
2017-12-12T09:57:52.271Z,99138
2017-12-12T10:00:20.959Z,99140
2017-12-12T10:02:48.897Z,99147
2017-12-12T10:05:18.286Z,99143
2017-12-12T10:07:46.579Z,99169
2017-12-12T10:10:14.512Z,99168
2017-12-12T10:12:42.472Z,99170
2017-12-12T10:15:10.520Z,99175
2017-12-12T10:17:38.987Z,99171
2017-12-12T10:20:06.883Z,99169
2017-12-12T10:22:34.918Z,99178
2017-12-12T10:25:02.856Z,99172
2017-12-12T10:27:30.751Z,99180
2017-12-12T10:29:58.743Z,99199
2017-12-12T10:32:27.346Z,99192
2017-12-12T10:34:55.336Z,99202
2017-12-12T10:37:23.328Z,99203
2017-12-12T10:39:51.334Z,99205
2017-12-12T10:42:20.084Z,99225
2017-12-12T10:44:49.851Z,99229
2017-12-12T10:47:17.815Z,99227
2017-12-12T10:49:45.811Z,99225
2017-12-12T10:52:13.726Z,99236
2017-12-12T10:54:41.663Z,99238
2017-12-12T10:57:09.603Z,99248
2017-12-12T10:59:37.526Z,99267
2017-12-12T11:02:06.903Z,99267
2017-12-12T11:04:34.842Z,99265
2017-12-12T11:07:02.734Z,99281
2017-12-12T11:09:30.914Z,99283
2017-12-12T11:11:58.859Z,99282
2017-12-12T11:14:26.754Z,99286
2017-12-12T11:16:54.723Z,99288
2017-12-12T11:19:22.622Z,99293
2017-12-12T11:21:51.268Z,99290
2017-12-12T11:24:19.164Z,99299
2017-12-12T11:26:47.166Z,99312
2017-12-12T11:29:15.150Z,99324
2017-12-12T11:31:43.090Z,99328
2017-12-12T11:34:11.426Z,99326
2017-12-12T11:36:39.306Z,99334
2017-12-12T11:39:07.206Z,99339
2017-12-12T11:41:35.833Z,99351
2017-12-12T11:44:03.775Z,99361
2017-12-12T11:46:31.688Z,99354
2017-12-12T11:48:59.702Z,99362
2017-12-12T11:51:28.367Z,99366
2017-12-12T11:53:57.515Z,99372
2017-12-12T11:56:25.463Z,99379
2017-12-12T11:58:53.434Z,99390
2017-12-12T12:01:22.075Z,99394
2017-12-12T12:03:50.003Z,99407
2017-12-12T12:06:18.282Z,99411
2017-12-12T12:08:46.190Z,99415
2017-12-12T12:11:14.166Z,99420
2017-12-12T12:13:42.907Z,99436
2017-12-12T12:16:10.847Z,99445
2017-12-12T12:18:39.647Z,99441
2017-12-12T12:21:07.991Z,99444
2017-12-12T12:23:37.415Z,99456
2017-12-12T12:26:06.144Z,99451
2017-12-12T12:28:34.120Z,99464
2017-12-12T12:31:02.139Z,99468
2017-12-12T12:33:30.168Z,99479
2017-12-12T12:35:58.120Z,99476
2017-12-12T12:38:26.807Z,99478
2017-12-12T12:40:54.784Z,99490
2017-12-12T12:43:22.763Z,99500
2017-12-12T12:45:50.963Z,99504
2017-12-12T12:48:18.876Z,99505
2017-12-12T12:50:46.851Z,99508
2017-12-12T12:53:14.858Z,99512
2017-12-12T12:55:42.798Z,99524
2017-12-12T12:58:10.715Z,99529
2017-12-12T13:00:39.406Z,99540
2017-12-12T13:03:08.153Z,99548
2017-12-12T13:05:36.071Z,99554
2017-12-12T13:08:04.031Z,99557
2017-12-12T13:10:33.846Z,99561
2017-12-12T13:13:02.080Z,99562
2017-12-12T13:15:30.018Z,99579
2017-12-12T13:17:58.046Z,99580
2017-12-12T13:20:25.959Z,99578
2017-12-12T13:22:54.006Z,99600
2017-12-12T13:25:23.155Z,99604
2017-12-12T13:27:51.119Z,99603
2017-12-12T13:30:19.072Z,99612
2017-12-12T13:32:47.037Z,99628
2017-12-12T13:35:15.288Z,99631
2017-12-12T13:37:43.968Z,99634
2017-12-12T13:40:11.987Z,99632
2017-12-12T13:42:39.898Z,99645
2017-12-12T13:45:08.207Z,99651
2017-12-12T13:47:37.004Z,99652
2017-12-12T13:50:04.967Z,99653
2017-12-12T13:52:33.446Z,99655
2017-12-12T13:55:02.202Z,99676
2017-12-12T13:57:30.103Z,99678
2017-12-12T13:59:58.018Z,99685
2017-12-12T14:02:25.918Z,99689
2017-12-12T14:04:53.775Z,99708
2017-12-12T14:07:22.040Z,99710
2017-12-12T14:09:49.946Z,99707
2017-12-12T14:12:17.871Z,99729
2017-12-12T14:14:45.955Z,99735
2017-12-12T14:17:13.888Z,99744
2017-12-12T14:19:42.679Z,99758
2017-12-12T14:22:10.708Z,99753
2017-12-12T14:24:39.408Z,99759
2017-12-12T14:27:08.019Z,99764
2017-12-12T14:29:36.190Z,99772
2017-12-12T14:32:04.327Z,99776
2017-12-12T14:34:32.258Z,99790
2017-12-12T14:37:00.160Z,99788
2017-12-12T14:39:28.799Z,99794
2017-12-12T14:41:56.791Z,99806
2017-12-12T14:44:24.743Z,99809
2017-12-12T14:46:52.655Z,99820
2017-12-12T14:49:20.586Z,99822
2017-12-12T14:51:48.762Z,99824
2017-12-12T14:54:16.686Z,99837
2017-12-12T14:56:44.604Z,99844
2017-12-12T14:59:12.511Z,99847
2017-12-12T15:01:41.262Z,99858
2017-12-12T15:04:09.147Z,99879
2017-12-12T15:06:37.119Z,99870
2017-12-12T15:09:05.217Z,99878
2017-12-12T15:11:33.429Z,99893
2017-12-12T15:14:01.344Z,99898
2017-12-12T15:16:29.546Z,99902
2017-12-12T15:18:57.447Z,99923
2017-12-12T15:21:25.346Z,99924
2017-12-12T15:23:53.239Z,99931
2017-12-12T15:26:21.159Z,99935
2017-12-12T15:28:49.067Z,99945
2017-12-12T15:31:17.712Z,99947
2017-12-12T15:33:45.654Z,99968
2017-12-12T15:36:13.612Z,99969
2017-12-12T15:38:41.951Z,99979
2017-12-12T15:41:09.894Z,99975
2017-12-12T15:43:37.831Z,99984
2017-12-12T15:46:05.782Z,99991
2017-12-12T15:48:34.496Z,99994
2017-12-12T15:51:02.455Z,100007
2017-12-12T15:53:30.394Z,100010
2017-12-12T15:55:58.339Z,100012
2017-12-12T15:58:26.308Z,100022
2017-12-12T16:00:54.506Z,100020
2017-12-12T16:03:22.386Z,100037
2017-12-12T16:05:51.013Z,100041
2017-12-12T16:08:18.923Z,100050
2017-12-12T16:10:46.843Z,100056
2017-12-12T16:13:14.833Z,100054
2017-12-12T16:15:42.875Z,100064
2017-12-12T16:18:10.770Z,100077
2017-12-12T16:20:38.982Z,100078
2017-12-12T16:23:07.688Z,100087
2017-12-12T16:25:36.708Z,100086
2017-12-12T16:28:04.666Z,100089
2017-12-12T16:30:32.551Z,100102
2017-12-12T16:33:00.447Z,100107
2017-12-12T16:35:28.553Z,100103
2017-12-12T16:37:57.279Z,100110
2017-12-12T16:40:25.286Z,100122
2017-12-12T16:42:54.041Z,100128
2017-12-12T16:45:22.343Z,100144
2017-12-12T16:47:50.274Z,100153
2017-12-12T16:50:18.283Z,100153
2017-12-12T16:52:46.195Z,100156
2017-12-12T16:55:14.894Z,100161
2017-12-12T16:57:42.871Z,100158
2017-12-12T17:00:10.815Z,100171
2017-12-12T17:02:38.906Z,100173
2017-12-12T17:05:06.822Z,100179
2017-12-12T17:07:35.488Z,100180
2017-12-12T17:10:03.821Z,100192
2017-12-12T17:12:32.520Z,100195
2017-12-12T17:15:00.451Z,100198
2017-12-12T17:17:28.706Z,100202
2017-12-12T17:19:57.446Z,100213
2017-12-12T17:22:25.358Z,100199
2017-12-12T17:24:53.288Z,100206
2017-12-12T17:27:21.243Z,100212
2017-12-12T17:29:49.875Z,100202
2017-12-12T17:32:17.854Z,100211
2017-12-12T17:34:48.140Z,100211
2017-12-12T17:37:16.176Z,100217
2017-12-12T17:39:44.157Z,100216
2017-12-12T17:42:12.075Z,100214
2017-12-12T17:44:40.711Z,100194
2017-12-12T17:47:08.683Z,100206
2017-12-12T17:49:37.323Z,100214
2017-12-12T17:52:05.195Z,100226
2017-12-12T17:54:33.149Z,100236
2017-12-12T17:57:01.049Z,100226
2017-12-12T17:59:30.306Z,100241
2017-12-12T18:01:58.207Z,100242
2017-12-12T18:04:26.092Z,100249
2017-12-12T18:06:54.167Z,100255
2017-12-12T18:09:22.127Z,100250
2017-12-12T18:11:50.006Z,100259
2017-12-12T18:14:17.874Z,100257
2017-12-12T18:16:46.516Z,100266
2017-12-12T18:19:14.419Z,100261
2017-12-12T18:21:42.311Z,100263
2017-12-12T18:24:10.179Z,100266
2017-12-12T18:26:38.087Z,100271
2017-12-12T18:29:05.983Z,100270
2017-12-12T18:31:33.898Z,100282
2017-12-12T18:34:01.834Z,100283
2017-12-12T18:36:30.535Z,100273
2017-12-12T18:38:58.452Z,100286
2017-12-12T18:41:26.638Z,100288
2017-12-12T18:43:54.525Z,100289
2017-12-12T18:46:22.412Z,100298
2017-12-12T18:48:50.279Z,100295
2017-12-12T18:51:18.189Z,100303
2017-12-12T18:53:46.497Z,100307
2017-12-12T18:56:14.391Z,100296
2017-12-12T18:58:43.003Z,100309
2017-12-12T19:01:10.943Z,100310
2017-12-12T19:03:39.574Z,100312
2017-12-12T19:06:07.712Z,100318
2017-12-12T19:08:35.661Z,100315
2017-12-12T19:11:03.719Z,100321
2017-12-12T19:13:31.609Z,100318
2017-12-12T19:15:59.543Z,100319
2017-12-12T19:18:27.728Z,100321
2017-12-12T19:20:57.119Z,100323
2017-12-12T19:23:25.127Z,100325
2017-12-12T19:25:53.065Z,100340
2017-12-12T19:28:20.970Z,100339
2017-12-12T19:30:49.619Z,100349
2017-12-12T19:33:17.507Z,100338
2017-12-12T19:35:45.383Z,100338
2017-12-12T19:38:14.026Z,100338
2017-12-12T19:40:41.999Z,100346
2017-12-12T19:43:10.203Z,100344
2017-12-12T19:45:38.147Z,100281
2017-12-12T19:48:06.115Z,100354
2017-12-12T19:50:34.023Z,100356
2017-12-12T19:53:02.695Z,100354
2017-12-12T19:55:31.409Z,100361
2017-12-12T19:58:00.107Z,100360
2017-12-12T20:00:28.039Z,100364
2017-12-12T20:02:56.414Z,100370
2017-12-12T20:05:24.406Z,100371
2017-12-12T20:07:52.318Z,100363
2017-12-12T20:10:20.250Z,100375
2017-12-12T20:12:48.170Z,100381
2017-12-12T20:15:16.067Z,100386
2017-12-12T20:17:44.021Z,100396
2017-12-12T20:20:11.988Z,100392
2017-12-12T20:22:40.318Z,100391
2017-12-12T20:25:08.238Z,100394
2017-12-12T20:27:36.914Z,100380
2017-12-12T20:30:04.795Z,100384
2017-12-12T20:32:33.661Z,100388
2017-12-12T20:35:01.570Z,100393
2017-12-12T20:37:29.526Z,100392
2017-12-12T20:39:57.887Z,100394
2017-12-12T20:42:25.807Z,100393
2017-12-12T20:44:53.735Z,100399
2017-12-12T20:47:21.639Z,100397
2017-12-12T20:49:49.564Z,100399
2017-12-12T20:52:17.475Z,100398
2017-12-12T20:54:45.377Z,100400
2017-12-12T20:57:13.284Z,100398
2017-12-12T20:59:41.163Z,100399
2017-12-12T21:02:10.108Z,100402
2017-12-12T21:04:37.988Z,100402
2017-12-12T21:07:10.932Z,100401
2017-12-12T21:09:38.879Z,100390
2017-12-12T21:12:06.815Z,100390
2017-12-12T21:14:34.765Z,100397
2017-12-12T21:17:02.683Z,100399
2017-12-12T21:19:31.340Z,100397
2017-12-12T21:21:59.249Z,100402
2017-12-12T21:24:27.245Z,100391
2017-12-12T21:26:55.470Z,100402
2017-12-12T21:29:23.431Z,100399
2017-12-12T21:31:52.073Z,100408
2017-12-12T21:34:20.004Z,100406
2017-12-12T21:36:47.897Z,100400
2017-12-12T21:39:15.839Z,100404
2017-12-12T21:41:44.468Z,100414
2017-12-12T21:44:12.364Z,100399
2017-12-12T21:46:40.271Z,100418
2017-12-12T21:49:08.900Z,100419
2017-12-12T21:51:36.813Z,100421
2017-12-12T21:54:05.513Z,100416
2017-12-12T21:56:34.150Z,100426
2017-12-12T21:59:02.070Z,100424
2017-12-12T22:01:30.045Z,100421
2017-12-12T22:03:57.934Z,100417
2017-12-12T22:06:25.911Z,100419
2017-12-12T22:08:54.127Z,100426
2017-12-12T22:11:22.042Z,100426
2017-12-12T22:13:50.013Z,100436
2017-12-12T22:16:17.941Z,100446
2017-12-12T22:18:46.663Z,100442
2017-12-12T22:21:14.567Z,100439
2017-12-12T22:23:42.494Z,100421
2017-12-12T22:26:10.465Z,100448
2017-12-12T22:28:38.370Z,100445
2017-12-12T22:31:06.315Z,100444
2017-12-12T22:33:35.690Z,100437
2017-12-12T22:36:03.624Z,100447
2017-12-12T22:38:32.300Z,100461
2017-12-12T22:41:00.258Z,100447
2017-12-12T22:43:28.206Z,100448
2017-12-12T22:45:56.080Z,100448
2017-12-12T22:48:23.984Z,100454
2017-12-12T22:50:53.370Z,100453
2017-12-12T22:54:24.527Z,100454
2017-12-12T22:56:52.653Z,100462
2017-12-12T22:59:20.947Z,100482
2017-12-12T23:01:48.840Z,100479
2017-12-12T23:04:16.786Z,100477
2017-12-12T23:06:44.691Z,100475
2017-12-12T23:09:12.603Z,100472
2017-12-12T23:11:40.519Z,100483
2017-12-12T23:14:08.488Z,100473
2017-12-12T23:16:36.526Z,100474
2017-12-12T23:19:04.487Z,100468
2017-12-12T23:21:32.430Z,100478
2017-12-12T23:24:01.484Z,100473
2017-12-12T23:26:29.383Z,100479
2017-12-12T23:28:58.047Z,100482
2017-12-12T23:31:26.019Z,100479
2017-12-12T23:33:54.664Z,100485
2017-12-12T23:36:22.567Z,100473
2017-12-12T23:38:50.494Z,100473
2017-12-12T23:41:18.676Z,100477
2017-12-12T23:43:46.568Z,100476
2017-12-12T23:46:14.459Z,100474
2017-12-12T23:48:43.846Z,100474
2017-12-12T23:51:12.727Z,100476
2017-12-12T23:53:40.688Z,100471
2017-12-12T23:56:08.574Z,100479
2017-12-12T23:58:36.474Z,100476
